Uvalde Research's Hourly Summary for Wednesday, March 15, 2017
Hour Temp
(f)
RH
(%)
Solar Rad.
(MJ/m2)
Rainfall
(in)
Wind
(mph)
3/15/2017 12:00 AM 56 72 0 0 1.53
3/15/2017 1:00 AM 55 76 0 0 2.26
3/15/2017 2:00 AM 53 81 0 0 2.24
3/15/2017 3:00 AM 52 86 0 0 1.56
3/15/2017 4:00 AM 51 91 0 0 2.1
3/15/2017 5:00 AM 51 93 0 0 2.53
3/15/2017 6:00 AM 51 93 0 0 2.24
3/15/2017 7:00 AM 51 93 0 0 2.12
3/15/2017 8:00 AM 53 92 0.07 0 2.2
3/15/2017 9:00 AM 54 90 0.28 0 2.8
3/15/2017 10:00 AM 57 87 0.42 0 2.83
3/15/2017 11:00 AM 59 83 0.62 0 2.73
3/15/2017 12:00 PM 63 79 1.02 0 3.37
3/15/2017 1:00 PM 65 76 1.21 0 3.48
3/15/2017 2:00 PM 67 72 1.23 0 3.44
3/15/2017 3:00 PM 68 71 1.03 0 3.75
3/15/2017 4:00 PM 70 67 1.7 0 4.13
3/15/2017 5:00 PM 71 66 0.87 0 4.05
3/15/2017 6:00 PM 71 65 0.4 0 4.21
3/15/2017 7:00 PM 69 68 0.05 0 3.85
3/15/2017 8:00 PM 67 74 0 0 2.95
3/15/2017 9:00 PM 65 80 0 0 3.17
3/15/2017 10:00 PM 64 80 0 0 3.69
3/15/2017 11:00 PM 63 82 0 0 3.15
Data Summary 60 79 8.90 0.00 2.93